Time;durP1;ratioP1;P1;durP2;ratioP2;P2;SDS_P1;SDS_P2;PMS_P1;PMS_P2;Temp;Humidity;BMP_temperature;BMP_pressure;BME280_temperature;BME280_humidity;BME280_pressure;Samples;Min_cycle;Max_cycle;Signal;HPM_P1;HPM_P2
2023/03/29 00:00:19;;;;;;;5.65;3.00;;;6.90;99.90;;;;;;5141517;27;20035;-73
2023/03/29 00:02:48;;;;;;;8.05;2.60;;;7.10;99.90;;;;;;5159242;27;20035;-73
2023/03/29 00:05:16;;;;;;;5.93;2.95;;;7.20;99.90;;;;;;5140868;27;20089;-73
2023/03/29 00:07:42;;;;;;;7.13;2.70;;;7.20;99.90;;;;;;5158795;27;20434;-73
2023/03/29 00:10:09;;;;;;;8.40;3.38;;;7.00;99.90;;;;;;5158854;27;20035;-73
2023/03/29 00:12:40;;;;;;;9.32;2.65;;;7.00;99.90;;;;;;5159098;27;20034;-74
2023/03/29 00:15:07;;;;;;;4.30;2.63;;;7.00;99.90;;;;;;5158988;27;20042;-73
2023/03/29 00:17:33;;;;;;;8.70;3.20;;;7.00;99.90;;;;;;5159024;27;20042;-73
2023/03/29 00:19:58;;;;;;;6.13;2.53;;;7.00;99.90;;;;;;5158765;27;20038;-73
2023/03/29 00:22:25;;;;;;;9.60;2.65;;;6.90;99.90;;;;;;5158629;27;20075;-73
2023/03/29 00:24:54;;;;;;;5.45;2.70;;;6.90;99.90;;;;;;5158569;27;20039;-73
2023/03/29 00:27:21;;;;;;;9.05;2.65;;;7.00;99.90;;;;;;5158629;27;20066;-73
2023/03/29 00:29:47;;;;;;;7.63;2.95;;;7.00;99.90;;;;;;5158495;27;20427;-73
2023/03/29 00:32:13;;;;;;;9.00;2.70;;;7.00;99.90;;;;;;5158804;27;20039;-73
2023/03/29 00:34:41;;;;;;;6.35;2.53;;;6.90;99.90;;;;;;5159060;27;20035;-73
2023/03/29 00:37:07;;;;;;;3.47;1.90;;;6.90;99.90;;;;;;5158469;27;20074;-73
2023/03/29 00:39:35;;;;;;;5.72;2.35;;;6.70;99.90;;;;;;5158559;27;20031;-73
2023/03/29 00:42:01;;;;;;;4.43;2.35;;;6.80;99.90;;;;;;5158763;27;20034;-73
2023/03/29 00:44:58;;;;;;;6.05;2.55;;;7.00;99.90;;;;;;5158683;27;20117;-73
2023/03/29 00:47:27;;;;;;;7.45;2.50;;;7.00;99.90;;;;;;5140454;27;20050;-73
2023/03/29 00:49:56;;;;;;;5.40;2.55;;;6.80;99.90;;;;;;5158569;27;20034;-73
2023/03/29 00:52:23;;;;;;;10.20;3.00;;;6.80;99.90;;;;;;5140146;27;20324;-74
2023/03/29 00:54:53;;;;;;;10.20;2.63;;;6.90;99.90;;;;;;5158070;27;20099;-73
2023/03/29 00:57:21;;;;;;;6.47;2.80;;;6.70;99.90;;;;;;5158557;27;20039;-73
2023/03/29 00:59:48;;;;;;;8.23;2.70;;;6.80;99.90;;;;;;5158475;27;20046;-73
2023/03/29 01:02:16;;;;;;;4.80;3.00;;;6.80;99.90;;;;;;5158442;27;20099;-73
2023/03/29 01:04:54;;;;;;;5.97;2.63;;;6.80;99.90;;;;;;5158436;27;20034;-73
2023/03/29 01:08:01;;;;;;;6.03;2.55;;;6.80;99.90;;;;;;5158433;27;20042;-73
2023/03/29 01:10:40;;;;;;;10.13;2.47;;;6.90;99.90;;;;;;5066671;27;20083;-73
2023/03/29 01:13:10;;;;;;;6.30;2.42;;;7.00;99.90;;;;;;5158427;27;20039;-73
2023/03/29 01:15:39;;;;;;;3.85;2.10;;;7.00;99.90;;;;;;5158263;27;20070;-73
2023/03/29 01:18:05;;;;;;;4.82;2.63;;;6.90;99.90;;;;;;5157968;27;20046;-73
2023/03/29 01:21:01;;;;;;;5.60;2.65;;;6.90;99.90;;;;;;5139985;27;20035;-73
2023/03/29 01:23:44;;;;;;;7.35;2.53;;;6.90;99.90;;;;;;5139960;27;20117;-73
2023/03/29 01:26:39;;;;;;;4.00;2.22;;;7.10;99.90;;;;;;5157856;27;20051;-72
2023/03/29 01:29:27;;;;;;;5.25;2.45;;;7.10;99.90;;;;;;5158306;27;20039;-73
2023/03/29 01:32:03;;;;;;;5.10;2.90;;;7.10;99.90;;;;;;5158263;27;20049;-73
2023/03/29 01:34:36;;;;;;;9.55;3.00;;;7.00;99.90;;;;;;5157882;27;20396;-73
2023/03/29 01:37:16;;;;;;;6.63;2.35;;;7.10;99.90;;;;;;5157851;27;20446;-73
2023/03/29 01:39:42;;;;;;;10.40;3.03;;;7.10;99.90;;;;;;5157812;27;20488;-73
2023/03/29 01:42:24;;;;;;;6.30;2.40;;;7.20;99.90;;;;;;5157797;27;20034;-73
2023/03/29 01:45:02;;;;;;;7.63;3.22;;;7.20;99.90;;;;;;5158084;27;20058;-73
2023/03/29 01:47:45;;;;;;;8.77;3.00;;;7.10;99.90;;;;;;5158033;27;20045;-73
2023/03/29 01:50:19;;;;;;;9.52;3.95;;;7.20;99.90;;;;;;5161198;27;20046;-73
2023/03/29 01:52:58;;;;;;;7.40;2.83;;;7.10;99.90;;;;;;5161858;27;20035;-73
2023/03/29 01:55:32;;;;;;;7.85;3.40;;;7.00;99.90;;;;;;5161083;27;20043;-73
2023/03/29 01:58:00;;;;;;;8.35;3.05;;;7.00;99.90;;;;;;5161769;27;20042;-73
2023/03/29 02:00:28;;;;;;;5.65;3.50;;;7.00;99.90;;;;;;5161669;27;20035;-73
2023/03/29 02:02:58;;;;;;;6.90;3.03;;;6.90;99.90;;;;;;5161382;27;20030;-73
2023/03/29 02:05:27;;;;;;;7.85;3.25;;;7.00;99.90;;;;;;5161606;27;20038;-73
2023/03/29 02:07:54;;;;;;;6.90;3.65;;;6.90;99.90;;;;;;5161520;27;20038;-73
2023/03/29 02:10:21;;;;;;;6.57;3.75;;;6.90;99.90;;;;;;5161455;27;20123;-73
2023/03/29 02:12:48;;;;;;;10.18;3.75;;;6.80;99.90;;;;;;5161449;27;20038;-73
2023/03/29 02:15:17;;;;;;;8.55;4.13;;;6.80;99.90;;;;;;5161344;27;20085;-73
2023/03/29 02:17:45;;;;;;;8.65;3.80;;;6.90;99.90;;;;;;5161341;27;20039;-73
2023/03/29 02:20:28;;;;;;;10.00;4.25;;;6.80;99.90;;;;;;5161042;27;20483;-73
2023/03/29 02:23:03;;;;;;;8.85;4.25;;;6.80;99.90;;;;;;5161282;27;20039;-73
2023/03/29 02:25:31;;;;;;;11.25;3.95;;;6.80;99.90;;;;;;5142555;27;20046;-73
2023/03/29 02:27:58;;;;;;;7.38;3.97;;;6.90;99.90;;;;;;5161161;27;20043;-73
2023/03/29 02:30:28;;;;;;;10.38;4.40;;;7.00;99.90;;;;;;5161092;27;20126;-73
2023/03/29 02:33:03;;;;;;;7.85;4.15;;;7.10;99.90;;;;;;5160808;27;20487;-74
2023/03/29 02:35:37;;;;;;;7.60;4.20;;;7.10;99.90;;;;;;5160959;27;20331;-73
2023/03/29 02:38:07;;;;;;;8.63;4.38;;;7.20;99.90;;;;;;5161022;27;20307;-73
2023/03/29 02:40:36;;;;;;;8.25;4.25;;;7.20;99.90;;;;;;5160870;27;20073;-74
2023/03/29 02:43:03;;;;;;;8.05;3.97;;;7.10;99.90;;;;;;5160861;27;20043;-73
2023/03/29 02:45:29;;;;;;;8.82;3.85;;;7.20;99.90;;;;;;5160816;27;20092;-73
2023/03/29 02:48:00;;;;;;;8.98;3.90;;;7.10;99.90;;;;;;5160505;27;20046;-73
2023/03/29 02:50:32;;;;;;;10.48;4.07;;;7.00;99.90;;;;;;5160723;27;20046;-73
2023/03/29 02:53:03;;;;;;;9.15;3.97;;;7.10;99.90;;;;;;5160357;27;20050;-73
2023/03/29 02:55:33;;;;;;;7.68;4.03;;;7.10;99.90;;;;;;5159569;27;20459;-74
2023/03/29 02:58:05;;;;;;;10.77;4.72;;;7.20;99.90;;;;;;5160625;27;20328;-73
2023/03/29 03:00:32;;;;;;;10.85;4.28;;;7.20;99.90;;;;;;5160483;27;20407;-73
2023/03/29 03:02:58;;;;;;;9.48;4.47;;;7.10;99.90;;;;;;5160496;27;20091;-73
2023/03/29 03:05:24;;;;;;;9.43;4.90;;;7.20;99.90;;;;;;5160383;27;20424;-73
2023/03/29 03:07:50;;;;;;;7.30;3.92;;;7.10;99.90;;;;;;5160071;27;20178;-73
2023/03/29 03:10:18;;;;;;;12.68;4.75;;;7.10;99.90;;;;;;5160397;27;20044;-73
2023/03/29 03:12:43;;;;;;;7.93;4.20;;;7.00;99.90;;;;;;5160265;27;20042;-73
2023/03/29 03:15:09;;;;;;;10.23;4.22;;;7.00;99.90;;;;;;5141557;27;20057;-74
2023/03/29 03:17:38;;;;;;;8.70;4.65;;;6.90;99.90;;;;;;5141700;27;20056;-74
2023/03/29 03:20:09;;;;;;;11.82;4.70;;;7.00;99.90;;;;;;5159809;27;20034;-73
2023/03/29 03:22:35;;;;;;;8.15;4.70;;;7.00;99.90;;;;;;5160052;27;20042;-73
2023/03/29 03:25:01;;;;;;;11.70;4.38;;;7.00;99.90;;;;;;5159622;27;20099;-73
2023/03/29 03:27:26;;;;;;;9.98;4.85;;;7.00;99.90;;;;;;5159907;27;20349;-73
2023/03/29 03:29:52;;;;;;;10.20;4.93;;;7.10;99.90;;;;;;5159954;27;20038;-73
2023/03/29 03:32:18;;;;;;;14.98;5.07;;;7.20;99.90;;;;;;5159911;27;20094;-73
2023/03/29 03:34:43;;;;;;;9.05;4.38;;;7.10;99.90;;;;;;5159518;27;20038;-73
2023/03/29 03:37:10;;;;;;;10.85;4.80;;;7.10;99.90;;;;;;5159368;27;20038;-73
2023/03/29 03:39:36;;;;;;;10.98;4.72;;;7.20;99.90;;;;;;5159748;27;20049;-73
2023/03/29 03:42:02;;;;;;;8.95;4.97;;;7.20;99.90;;;;;;5159683;27;20038;-73
2023/03/29 03:44:28;;;;;;;12.65;4.95;;;7.00;99.90;;;;;;5159658;27;20038;-73
2023/03/29 03:46:54;;;;;;;9.45;4.65;;;7.00;99.90;;;;;;5159561;27;20046;-73
2023/03/29 03:49:20;;;;;;;9.65;4.68;;;6.90;99.90;;;;;;5159408;27;20098;-73
2023/03/29 03:51:46;;;;;;;8.43;4.93;;;6.90;99.90;;;;;;5159237;27;20039;-73
2023/03/29 03:54:12;;;;;;;11.77;5.00;;;7.00;99.90;;;;;;5159444;27;20037;-74
2023/03/29 03:56:37;;;;;;;9.30;4.90;;;7.20;99.90;;;;;;5158563;27;20491;-73
2023/03/29 03:59:04;;;;;;;10.50;5.32;;;7.20;99.90;;;;;;5159304;27;20046;-73
2023/03/29 04:01:30;;;;;;;10.43;5.28;;;7.10;99.90;;;;;;5159332;27;20039;-73
2023/03/29 04:03:56;;;;;;;11.02;5.05;;;7.20;99.90;;;;;;5159223;27;20035;-73
2023/03/29 04:06:22;;;;;;;9.70;5.25;;;7.00;99.90;;;;;;5158912;27;20047;-73
2023/03/29 04:08:47;;;;;;;10.07;5.35;;;7.10;99.90;;;;;;5159210;27;20081;-73
2023/03/29 04:11:14;;;;;;;12.27;5.47;;;7.10;99.90;;;;;;5158674;27;20039;-73
2023/03/29 04:13:40;;;;;;;12.15;5.55;;;7.10;99.90;;;;;;5158880;27;20046;-74
2023/03/29 04:16:06;;;;;;;12.23;5.82;;;7.30;99.90;;;;;;5159010;27;20062;-73
2023/03/29 04:18:32;;;;;;;13.00;5.18;;;7.30;99.90;;;;;;5159036;27;20118;-74
2023/03/29 04:20:57;;;;;;;10.88;5.50;;;7.30;99.90;;;;;;5158938;27;20424;-73
2023/03/29 04:23:23;;;;;;;9.80;5.85;;;7.40;99.90;;;;;;5158957;27;20323;-73
2023/03/29 04:25:52;;;;;;;10.50;5.55;;;7.30;99.90;;;;;;5158258;27;20042;-73
2023/03/29 04:28:18;;;;;;;10.25;5.75;;;7.40;99.90;;;;;;5158876;27;20041;-73
2023/03/29 04:30:45;;;;;;;11.80;5.57;;;7.40;99.90;;;;;;5158864;27;20407;-73
2023/03/29 04:33:11;;;;;;;11.15;6.07;;;7.30;99.90;;;;;;5158521;27;20045;-73
2023/03/29 04:35:37;;;;;;;13.52;6.38;;;7.30;99.90;;;;;;5158714;27;20331;-73
2023/03/29 04:38:03;;;;;;;11.43;6.18;;;7.30;99.90;;;;;;5158718;27;20338;-73
2023/03/29 04:40:29;;;;;;;12.48;6.28;;;7.40;99.90;;;;;;5158378;27;20449;-73
2023/03/29 04:42:55;;;;;;;13.45;6.55;;;7.30;99.90;;;;;;5158635;27;20045;-73
2023/03/29 04:45:21;;;;;;;15.30;6.43;;;7.40;99.90;;;;;;5158628;27;20051;-73
2023/03/29 04:47:47;;;;;;;13.40;6.68;;;7.30;99.90;;;;;;5158665;27;20042;-73
2023/03/29 04:50:12;;;;;;;15.45;6.43;;;7.40;99.90;;;;;;5158586;27;20336;-73
2023/03/29 04:52:38;;;;;;;11.43;6.13;;;7.40;99.90;;;;;;5158359;27;20038;-74
2023/03/29 04:55:05;;;;;;;16.70;7.63;;;7.40;99.90;;;;;;5158038;27;20039;-73
2023/03/29 04:57:31;;;;;;;13.70;7.00;;;7.50;99.90;;;;;;5158100;27;20055;-73
2023/03/29 04:59:57;;;;;;;14.13;7.20;;;7.50;99.90;;;;;;5139916;27;20116;-73
2023/03/29 05:02:23;;;;;;;12.73;6.35;;;7.40;99.90;;;;;;5158357;27;20035;-74
2023/03/29 05:04:49;;;;;;;13.95;6.85;;;7.50;99.90;;;;;;5158410;27;20042;-73
2023/03/29 05:07:16;;;;;;;14.80;6.57;;;7.30;99.90;;;;;;5158395;27;20037;-73
2023/03/29 05:09:42;;;;;;;12.10;7.00;;;7.30;99.90;;;;;;5158407;27;20053;-73
2023/03/29 05:12:08;;;;;;;12.85;6.78;;;7.40;99.90;;;;;;5158421;27;20366;-74
2023/03/29 05:14:33;;;;;;;10.75;6.47;;;7.70;99.90;;;;;;5158324;27;20030;-73
2023/03/29 05:17:00;;;;;;;13.85;7.30;;;7.70;99.90;;;;;;5158253;27;20412;-73
2023/03/29 05:19:26;;;;;;;13.20;6.82;;;7.50;99.90;;;;;;5158004;27;20082;-74
2023/03/29 05:21:52;;;;;;;22.48;7.68;;;7.60;99.90;;;;;;5158270;27;20038;-73
2023/03/29 05:24:18;;;;;;;13.85;7.07;;;7.50;99.90;;;;;;5160177;27;20037;-73
2023/03/29 05:26:46;;;;;;;16.58;7.10;;;7.60;99.90;;;;;;5161922;27;20324;-73
2023/03/29 05:29:12;;;;;;;15.00;7.82;;;7.60;99.90;;;;;;5162293;27;20039;-73
2023/03/29 05:31:39;;;;;;;16.75;6.68;;;7.60;99.90;;;;;;5162247;27;20077;-73
2023/03/29 05:34:05;;;;;;;14.95;7.20;;;7.50;99.90;;;;;;5162235;27;20045;-73
2023/03/29 05:36:31;;;;;;;14.57;7.88;;;7.40;99.90;;;;;;5162107;27;20317;-74
2023/03/29 05:38:58;;;;;;;12.40;7.07;;;7.50;99.90;;;;;;5161753;27;20447;-73
2023/03/29 05:41:24;;;;;;;13.30;7.32;;;7.40;99.90;;;;;;5144038;27;20034;-73
2023/03/29 05:43:50;;;;;;;14.18;6.97;;;7.50;99.90;;;;;;5162025;27;20143;-74
2023/03/29 05:46:16;;;;;;;15.68;7.97;;;7.70;99.90;;;;;;5161708;27;20450;-73
2023/03/29 05:48:42;;;;;;;16.10;7.93;;;7.80;99.90;;;;;;5143515;27;20042;-73
2023/03/29 05:51:08;;;;;;;12.32;7.28;;;7.90;99.90;;;;;;5143585;27;20077;-73
2023/03/29 05:53:34;;;;;;;17.05;7.90;;;7.80;99.90;;;;;;5161610;27;20040;-73
2023/03/29 05:56:00;;;;;;;14.55;7.40;;;7.90;99.90;;;;;;5161050;27;20439;-73
2023/03/29 05:58:27;;;;;;;15.32;7.22;;;7.90;99.90;;;;;;5161436;27;20038;-73
2023/03/29 06:00:53;;;;;;;14.60;7.40;;;7.90;99.90;;;;;;5143289;27;20042;-73
2023/03/29 06:03:23;;;;;;;16.67;8.27;;;7.80;99.90;;;;;;5161338;27;20039;-73
2023/03/29 06:05:56;;;;;;;13.55;7.57;;;7.80;99.90;;;;;;5161686;27;20095;-73
2023/03/29 06:08:22;;;;;;;16.23;7.70;;;7.90;99.90;;;;;;5161601;27;20382;-73
2023/03/29 06:10:49;;;;;;;13.35;7.45;;;7.80;99.90;;;;;;5161489;27;20074;-73
2023/03/29 06:13:15;;;;;;;13.57;7.72;;;7.90;99.90;;;;;;5161502;27;20045;-73
2023/03/29 06:15:40;;;;;;;18.02;8.88;;;7.70;99.90;;;;;;5161344;27;20049;-73
2023/03/29 06:18:06;;;;;;;18.50;9.07;;;7.70;99.90;;;;;;5161338;27;20031;-73
2023/03/29 06:20:32;;;;;;;16.85;8.80;;;7.80;99.90;;;;;;5161006;27;20117;-73
2023/03/29 06:22:58;;;;;;;14.38;8.55;;;7.90;99.90;;;;;;5161250;27;20038;-73
2023/03/29 06:25:23;;;;;;;19.52;9.73;;;7.90;99.90;;;;;;5160848;27;20070;-73
2023/03/29 06:27:50;;;;;;;16.33;8.45;;;7.90;99.90;;;;;;5161174;27;20049;-73
2023/03/29 06:30:17;;;;;;;17.95;8.88;;;8.00;99.90;;;;;;5160875;27;20078;-73
2023/03/29 06:32:43;;;;;;;17.08;9.30;;;8.00;99.90;;;;;;5161101;27;20042;-73
2023/03/29 06:35:10;;;;;;;16.55;8.15;;;8.10;99.90;;;;;;5141939;27;20043;-73
2023/03/29 06:37:39;;;;;;;13.93;8.07;;;8.10;99.90;;;;;;5161019;27;20422;-73
2023/03/29 06:40:05;;;;;;;15.93;7.82;;;8.10;99.90;;;;;;5160670;27;20043;-73
2023/03/29 06:42:31;;;;;;;16.40;9.02;;;8.20;99.90;;;;;;5160942;27;20042;-74
2023/03/29 06:44:58;;;;;;;18.05;8.93;;;8.10;99.90;;;;;;5160509;27;20041;-74
2023/03/29 06:47:29;;;;;;;16.40;9.18;;;8.20;99.90;;;;;;5160814;27;20050;-73
2023/03/29 06:49:55;;;;;;;18.42;8.80;;;7.90;99.90;;;;;;5160613;27;20060;-73
2023/03/29 06:52:21;;;;;;;18.00;10.35;;;8.00;99.90;;;;;;5160740;27;20070;-73
2023/03/29 06:54:47;;;;;;;17.80;8.63;;;8.00;99.90;;;;;;5160250;27;20448;-74
2023/03/29 06:57:12;;;;;;;13.93;8.80;;;8.20;99.90;;;;;;5160104;27;20447;-73
2023/03/29 06:59:38;;;;;;;16.20;9.18;;;8.20;99.90;;;;;;5160555;27;20043;-73
2023/03/29 07:02:04;;;;;;;20.30;9.68;;;8.20;99.90;;;;;;5160517;27;20038;-74
2023/03/29 07:04:31;;;;;;;18.60;9.40;;;8.30;99.90;;;;;;5160494;27;20058;-73
2023/03/29 07:07:04;;;;;;;22.38;9.77;;;8.00;99.90;;;;;;5160056;27;20042;-73
2023/03/29 07:09:31;;;;;;;17.92;9.18;;;8.10;99.90;;;;;;5160082;27;20418;-73
2023/03/29 07:11:57;;;;;;;18.23;9.57;;;8.00;99.90;;;;;;5160369;27;20365;-73
2023/03/29 07:14:27;;;;;;;18.73;9.30;;;8.10;99.90;;;;;;5160281;27;20046;-73
2023/03/29 07:16:59;;;;;;;19.10;9.30;;;8.00;99.90;;;;;;5159765;27;20442;-74
2023/03/29 07:19:28;;;;;;;16.05;9.23;;;8.10;99.90;;;;;;5160140;27;20043;-73
2023/03/29 07:21:55;;;;;;;15.05;8.75;;;7.90;99.90;;;;;;5159779;27;20423;-73
2023/03/29 07:24:21;;;;;;;17.67;9.07;;;8.20;99.90;;;;;;5159999;27;20056;-73
2023/03/29 07:26:47;;;;;;;16.60;9.82;;;8.20;99.90;;;;;;5159598;27;20110;-73
2023/03/29 07:29:16;;;;;;;19.63;9.63;;;8.20;99.90;;;;;;5158780;27;20094;-74
2023/03/29 07:31:43;;;;;;;15.98;8.63;;;8.20;99.90;;;;;;5159350;27;20078;-74
2023/03/29 07:34:12;;;;;;;20.02;8.98;;;8.30;99.90;;;;;;5159165;27;20034;-73
2023/03/29 07:36:38;;;;;;;18.23;9.25;;;8.50;99.90;;;;;;5159785;27;20030;-73
2023/03/29 07:39:05;;;;;;;16.80;9.13;;;8.60;99.90;;;;;;5159804;27;20080;-73
2023/03/29 07:41:31;;;;;;;17.13;9.18;;;8.80;99.90;;;;;;5141507;27;20038;-74
2023/03/29 07:44:00;;;;;;;16.10;8.95;;;8.90;99.90;;;;;;5141057;27;20335;-74
2023/03/29 07:46:28;;;;;;;18.63;9.68;;;8.60;99.90;;;;;;5158532;27;20442;-73
2023/03/29 07:48:55;;;;;;;15.93;8.35;;;8.40;99.90;;;;;;5159350;27;20039;-74
2023/03/29 07:51:21;;;;;;;15.07;8.57;;;8.40;99.90;;;;;;5159349;27;20039;-73
2023/03/29 07:53:48;;;;;;;16.55;9.02;;;8.60;99.90;;;;;;5159564;27;20043;-73
2023/03/29 07:56:14;;;;;;;15.68;8.98;;;8.70;99.90;;;;;;5140199;27;20054;-73
2023/03/29 07:58:40;;;;;;;14.10;9.00;;;8.60;99.90;;;;;;5159438;27;20046;-67
2023/03/29 08:01:07;;;;;;;16.33;9.32;;;8.60;99.90;;;;;;5159035;27;20034;-72
2023/03/29 08:03:33;;;;;;;19.70;10.23;;;8.60;99.90;;;;;;5159000;27;20074;-70
2023/03/29 08:06:01;;;;;;;12.90;8.70;;;8.80;99.90;;;;;;5159072;27;20134;-69
2023/03/29 08:08:27;;;;;;;16.85;9.48;;;8.80;99.90;;;;;;5158915;27;20038;-70
2023/03/29 08:10:53;;;;;;;19.13;9.98;;;8.90;99.90;;;;;;5123707;27;20039;-70
2023/03/29 08:13:19;;;;;;;16.80;9.98;;;9.00;99.90;;;;;;5159095;27;20034;-70
2023/03/29 08:15:47;;;;;;;18.05;9.32;;;9.10;99.90;;;;;;5140799;27;20415;-70
2023/03/29 08:18:13;;;;;;;18.17;8.52;;;9.00;99.90;;;;;;5141214;27;20039;-70
2023/03/29 08:20:39;;;;;;;13.80;8.40;;;9.00;99.90;;;;;;5158762;27;20039;-70
2023/03/29 08:23:05;;;;;;;14.20;7.78;;;9.10;99.90;;;;;;5141051;27;20030;-71
2023/03/29 08:25:31;;;;;;;19.35;9.00;;;9.20;99.90;;;;;;5158747;27;20508;-72
2023/03/29 08:27:57;;;;;;;16.90;9.00;;;9.30;99.90;;;;;;5158881;27;20031;-71
2023/03/29 08:30:22;;;;;;;12.27;7.20;;;9.30;99.90;;;;;;5158555;27;20446;-73
2023/03/29 08:32:48;;;;;;;16.23;8.60;;;9.20;99.90;;;;;;5159228;27;20042;-72
2023/03/29 08:35:14;;;;;;;12.68;8.05;;;9.20;99.90;;;;;;5158376;27;20045;-70
2023/03/29 08:37:41;;;;;;;16.17;7.78;;;9.30;99.90;;;;;;5123351;27;20166;-70
2023/03/29 08:40:09;;;;;;;14.43;7.45;;;9.40;99.90;;;;;;5140667;27;20043;-70
2023/03/29 08:42:48;;;;;;;12.85;7.30;;;9.50;99.90;;;;;;5158695;27;20045;-70
2023/03/29 08:45:14;;;;;;;13.40;7.03;;;9.30;99.90;;;;;;5158669;27;20050;-70
2023/03/29 08:48:13;;;;;;;14.05;7.80;;;9.30;99.90;;;;;;5140408;27;20039;-70
2023/03/29 08:50:51;;;;;;;13.98;7.78;;;9.40;99.90;;;;;;5158632;27;20034;-70
2023/03/29 08:53:48;;;;;;;12.55;7.93;;;9.70;99.90;;;;;;5158579;27;20039;-70
2023/03/29 08:56:19;;;;;;;13.90;7.90;;;9.60;99.90;;;;;;5157933;27;20058;-70
2023/03/29 08:58:46;;;;;;;14.57;7.75;;;9.90;99.90;;;;;;5163299;27;20066;-69
2023/03/29 09:01:13;;;;;;;15.63;7.93;;;10.30;99.90;;;;;;5165168;27;20038;-71
2023/03/29 09:03:50;;;;;;;14.00;7.70;;;10.30;99.90;;;;;;5165396;27;20062;-71
2023/03/29 09:06:20;;;;;;;18.40;8.07;;;10.30;99.90;;;;;;5165400;27;20042;-71
2023/03/29 09:08:48;;;;;;;11.18;7.55;;;10.40;99.90;;;;;;5165056;27;20039;-70
2023/03/29 09:11:23;;;;;;;11.77;7.22;;;10.50;99.90;;;;;;5165289;27;20031;-71
2023/03/29 09:14:07;;;;;;;14.63;7.45;;;10.50;99.90;;;;;;5165076;27;20095;-70
2023/03/29 09:16:52;;;;;;;14.48;7.68;;;10.30;99.90;;;;;;5165162;27;20083;-71
2023/03/29 09:19:21;;;;;;;17.48;7.40;;;10.40;99.90;;;;;;5165442;27;20391;-71
2023/03/29 09:21:58;;;;;;;14.55;6.95;;;10.50;99.90;;;;;;5165251;27;20305;-70
2023/03/29 09:24:50;;;;;;;16.38;7.60;;;10.30;99.90;;;;;;5165212;27;20045;-70
2023/03/29 09:27:25;;;;;;;14.95;8.45;;;10.30;99.90;;;;;;5165201;27;20039;-71
2023/03/29 09:29:57;;;;;;;16.90;7.63;;;10.40;99.90;;;;;;5130011;27;20065;-71
2023/03/29 09:32:36;;;;;;;14.77;7.80;;;10.70;99.90;;;;;;5165173;27;20349;-71
2023/03/29 09:35:22;;;;;;;17.92;9.27;;;10.90;99.90;;;;;;5129315;27;20039;-71
2023/03/29 09:37:50;;;;;;;;;;;11.20;99.90;;;;;;5147013;27;20057;-71
2023/03/29 09:40:54;;;;;;;16.10;8.07;;;11.30;99.90;;;;;;5146769;27;19964;-71
2023/03/29 09:43:41;;;;;;;15.25;7.65;;;11.20;99.90;;;;;;5164083;27;20347;-71
2023/03/29 09:46:24;;;;;;;15.35;7.60;;;11.10;99.90;;;;;;5165043;27;20035;-71
2023/03/29 09:48:52;;;;;;;15.88;8.45;;;11.30;99.90;;;;;;5146735;27;20091;-71
2023/03/29 09:51:23;;;;;;;17.38;8.55;;;11.50;99.90;;;;;;5164630;27;20441;-71
2023/03/29 09:53:49;;;;;;;20.13;9.23;;;11.40;99.90;;;;;;5146987;27;20043;-70
2023/03/29 09:56:15;;;;;;;22.60;8.80;;;11.50;99.90;;;;;;5142560;27;20112;-70
2023/03/29 09:58:43;;;;;;;17.33;9.02;;;11.60;99.90;;;;;;5143168;27;20035;-70
2023/03/29 10:01:12;;;;;;;23.70;9.02;;;11.70;99.90;;;;;;5126142;27;20031;-71
2023/03/29 10:03:40;;;;;;;18.05;8.93;;;11.70;99.90;;;;;;5144061;27;20088;-70
2023/03/29 10:06:09;;;;;;;18.52;8.90;;;11.80;99.90;;;;;;5144039;27;20310;-68
2023/03/29 10:08:39;;;;;;;19.25;8.15;;;11.70;99.90;;;;;;5144011;27;20054;-69
2023/03/29 10:11:17;;;;;;;19.52;8.95;;;11.50;99.90;;;;;;5139958;27;20046;-68
2023/03/29 10:13:46;;;;;;;22.30;8.93;;;11.40;99.90;;;;;;5140752;27;20042;-70
2023/03/29 10:16:37;;;;;;;14.93;7.50;;;11.40;99.90;;;;;;5140275;27;20499;-69
2023/03/29 10:19:30;;;;;;;19.10;8.30;;;11.40;99.90;;;;;;5132831;27;20377;-70
2023/03/29 10:21:58;;;;;;;20.42;8.90;;;11.40;99.90;;;;;;5140462;27;20046;-70
2023/03/29 10:24:26;;;;;;;22.02;9.10;;;11.30;99.90;;;;;;5139186;27;20039;-71
2023/03/29 10:27:08;;;;;;;20.15;9.40;;;11.30;99.90;;;;;;5140231;27;20043;-71
2023/03/29 10:29:38;;;;;;;20.77;9.15;;;11.60;99.90;;;;;;5140595;27;20050;-74
2023/03/29 10:32:35;;;;;;;17.67;9.60;;;11.70;99.90;;;;;;5140694;27;20302;-70
2023/03/29 10:35:22;;;;;;;17.77;10.02;;;11.80;99.90;;;;;;5139373;27;20500;-71
2023/03/29 10:37:51;;;;;;;23.80;9.70;;;11.90;99.90;;;;;;5125981;27;20155;-71
2023/03/29 10:40:29;;;;;;;17.00;9.60;;;11.80;99.90;;;;;;5139141;27;20176;-71
2023/03/29 10:42:58;;;;;;;15.90;9.50;;;11.90;99.90;;;;;;5138903;27;20046;-70
2023/03/29 10:45:34;;;;;;;19.67;10.30;;;11.90;99.90;;;;;;5139802;27;20450;-71
2023/03/29 10:48:05;;;;;;;16.67;9.48;;;11.80;99.90;;;;;;5139300;27;20404;-71
2023/03/29 10:50:34;;;;;;;20.20;9.73;;;11.90;99.90;;;;;;5140101;27;20404;-71
2023/03/29 10:53:02;;;;;;;18.98;10.15;;;12.00;99.90;;;;;;5139978;27;20043;-71
2023/03/29 10:55:39;;;;;;;19.73;10.45;;;12.10;99.90;;;;;;5139581;27;20078;-72
2023/03/29 10:58:37;;;;;;;24.67;11.20;;;12.30;99.90;;;;;;5160649;27;20050;-72
2023/03/29 11:01:04;;;;;;;21.40;11.65;;;12.50;99.90;;;;;;5160612;27;20034;-71
2023/03/29 11:03:47;;;;;;;22.25;10.80;;;12.80;99.90;;;;;;5142158;27;20082;-72
2023/03/29 11:06:22;;;;;;;21.30;10.85;;;13.00;99.90;;;;;;5160518;27;20066;-72
2023/03/29 11:08:58;;;;;;;21.45;10.73;;;13.10;99.90;;;;;;5160417;27;20046;-72
2023/03/29 11:11:40;;;;;;;18.45;10.48;;;13.10;99.90;;;;;;5160420;27;20046;-71
2023/03/29 11:14:23;;;;;;;21.80;11.32;;;13.20;99.90;;;;;;5160118;27;20053;-72
2023/03/29 11:17:25;;;;;;;21.42;10.90;;;13.50;99.90;;;;;;5160244;27;20066;-71
2023/03/29 11:20:11;;;;;;;18.27;10.95;;;13.50;99.90;;;;;;5160221;27;20038;-73
2023/03/29 11:22:53;;;;;;;20.85;10.93;;;13.50;99.90;;;;;;5140788;27;20160;-72
2023/03/29 11:25:28;;;;;;;20.65;11.32;;;13.90;99.90;;;;;;5159828;27;20050;-73
2023/03/29 11:28:31;;;;;;;20.80;11.18;;;14.50;99.90;;;;;;5160149;27;20046;-72
2023/03/29 11:31:03;;;;;;;16.40;10.32;;;14.60;99.90;;;;;;5127817;27;20069;-73
2023/03/29 11:34:08;;;;;;;20.30;11.05;;;14.40;99.90;;;;;;5159693;27;20432;-71
2023/03/29 11:36:52;;;;;;;20.25;10.45;;;14.30;99.90;;;;;;5141248;27;20039;-72
2023/03/29 11:39:35;;;;;;;18.63;10.40;;;14.40;99.90;;;;;;5141314;27;20147;-72
2023/03/29 11:42:11;;;;;;;19.00;11.20;;;14.10;99.90;;;;;;5159822;27;20057;-72
2023/03/29 11:44:39;;;;;;;19.88;11.35;;;14.10;99.90;;;;;;5160061;27;20110;-72
2023/03/29 11:47:10;;;;;;;21.02;11.38;;;14.00;99.90;;;;;;5159385;27;20049;-71
2023/03/29 11:49:48;;;;;;;20.38;11.18;;;13.80;99.90;;;;;;5159620;27;20034;-71
2023/03/29 11:52:16;;;;;;;19.30;11.50;;;13.80;99.90;;;;;;5159587;27;20034;-70
2023/03/29 11:54:49;;;;;;;17.65;10.95;;;13.90;99.90;;;;;;5159476;27;20042;-71
2023/03/29 11:57:36;;;;;;;18.38;10.23;;;14.00;99.90;;;;;;5158745;27;20058;-72
2023/03/29 12:00:20;;;;;;;17.88;11.68;;;13.90;99.90;;;;;;5159190;27;20043;-72
2023/03/29 12:02:56;;;;;;;21.67;11.43;;;14.00;99.90;;;;;;5159357;27;20038;-72
2023/03/29 12:05:46;;;;;;;20.55;10.90;;;13.70;99.90;;;;;;5159383;27;20376;-71
2023/03/29 12:08:38;;;;;;;15.82;10.13;;;13.70;99.90;;;;;;5158327;27;20103;-70
2023/03/29 12:11:27;;;;;;;19.48;10.00;;;13.90;99.90;;;;;;5131795;27;20054;-72
2023/03/29 12:14:03;;;;;;;18.23;10.45;;;13.80;99.90;;;;;;5158821;27;20478;-72
2023/03/29 12:16:36;;;;;;;18.27;10.48;;;13.90;99.90;;;;;;5159395;27;20042;-72
2023/03/29 12:19:12;;;;;;;17.08;10.20;;;14.10;99.90;;;;;;5159114;27;20095;-72
2023/03/29 12:21:40;;;;;;;19.05;9.93;;;14.40;99.90;;;;;;5159084;27;20038;-71
2023/03/29 12:24:11;;;;;;;15.88;9.13;;;14.50;99.90;;;;;;5140659;27;20056;-74
2023/03/29 12:27:05;;;;;;;14.80;9.35;;;14.70;99.90;;;;;;5158448;27;20305;-75
2023/03/29 12:29:54;;;;;;;14.65;9.00;;;14.60;99.90;;;;;;5140360;27;20051;-76
2023/03/29 12:32:39;;;;;;;13.00;8.95;;;14.50;99.90;;;;;;5139977;27;20071;-76
2023/03/29 12:35:22;;;;;;;13.77;9.40;;;14.50;99.90;;;;;;5140361;27;20094;-76
2023/03/29 12:38:03;;;;;;;14.10;8.05;;;14.50;99.90;;;;;;5140380;27;20442;-75
2023/03/29 12:40:40;;;;;;;13.77;7.47;;;14.00;99.90;;;;;;5159161;27;20034;-75
2023/03/29 12:43:14;;;;;;;13.82;8.07;;;13.90;99.90;;;;;;5123058;27;20043;-75
2023/03/29 12:45:48;;;;;;;13.00;8.38;;;13.70;99.90;;;;;;5158733;27;20050;-74
2023/03/29 12:48:17;;;;;;;12.85;8.90;;;14.00;99.90;;;;;;5140307;27;20054;-74
2023/03/29 12:50:51;;;;;;;13.38;7.72;;;14.10;99.90;;;;;;5158679;27;20046;-74
2023/03/29 12:53:20;;;;;;;15.23;7.93;;;13.80;99.90;;;;;;5140895;27;20042;-74
2023/03/29 12:56:09;;;;;;;13.63;7.70;;;13.90;99.90;;;;;;5122199;27;20336;-74
2023/03/29 12:58:38;;;;;;;16.08;7.32;;;14.00;99.90;;;;;;5139854;27;20087;-74
2023/03/29 13:01:22;;;;;;;12.32;7.68;;;14.00;99.90;;;;;;5158528;27;20042;-74
2023/03/29 13:03:54;;;;;;;13.77;8.70;;;13.90;99.90;;;;;;5140185;27;20039;-74
2023/03/29 13:06:30;;;;;;;13.20;8.23;;;13.80;99.90;;;;;;5158465;27;20043;-74